sensor_id;sensor_type;location;lat;lon;timestamp;pressure;altitude;pressure_sealevel;temperature;humidity
12775;BME280;6451;42.630;23.382;2023-02-19T00:01:46;94671.72;;;7.50;95.38
12775;BME280;6451;42.630;23.382;2023-02-19T00:04:15;94656.00;;;7.27;98.96
12775;BME280;6451;42.630;23.382;2023-02-19T00:06:44;94669.81;;;7.42;98.23
12775;BME280;6451;42.630;23.382;2023-02-19T00:09:12;94642.34;;;7.06;100.00
12775;BME280;6451;42.630;23.382;2023-02-19T00:11:39;94668.88;;;7.38;98.46
12775;BME280;6451;42.630;23.382;2023-02-19T00:14:10;94566.94;;;6.75;99.57
12775;BME280;6451;42.630;23.382;2023-02-19T00:16:39;94680.31;;;7.44;100.00
12775;BME280;6451;42.630;23.382;2023-02-19T00:19:10;94672.19;;;7.35;100.00
12775;BME280;6451;42.630;23.382;2023-02-19T00:21:41;94670.78;;;7.29;100.00
12775;BME280;6451;42.630;23.382;2023-02-19T00:24:10;94669.81;;;7.42;99.45
12775;BME280;6451;42.630;23.382;2023-02-19T00:26:39;94664.88;;;7.10;100.00
12775;BME280;6451;42.630;23.382;2023-02-19T00:29:08;94634.22;;;6.88;100.00
12775;BME280;6451;42.630;23.382;2023-02-19T00:31:38;94677.44;;;7.14;100.00
12775;BME280;6451;42.630;23.382;2023-02-19T00:34:06;94673.78;;;7.19;100.00
12775;BME280;6451;42.630;23.382;2023-02-19T00:36:36;94667.13;;;7.16;100.00
12775;BME280;6451;42.630;23.382;2023-02-19T00:39:05;94654.56;;;7.20;100.00
12775;BME280;6451;42.630;23.382;2023-02-19T00:41:33;94635.19;;;7.10;100.00
12775;BME280;6451;42.630;23.382;2023-02-19T00:44:03;94657.44;;;7.33;100.00
12775;BME280;6451;42.630;23.382;2023-02-19T00:46:38;94653.81;;;7.29;100.00
12775;BME280;6451;42.630;23.382;2023-02-19T00:49:08;94661.91;;;7.37;100.00
12775;BME280;6451;42.630;23.382;2023-02-19T00:51:41;94629.00;;;7.18;100.00
12775;BME280;6451;42.630;23.382;2023-02-19T00:54:09;94642.38;;;7.23;100.00
12775;BME280;6451;42.630;23.382;2023-02-19T00:56:36;94655.84;;;7.14;100.00
12775;BME280;6451;42.630;23.382;2023-02-19T00:59:05;94642.19;;;7.11;100.00
12775;BME280;6451;42.630;23.382;2023-02-19T01:01:34;94636.63;;;7.07;100.00
12775;BME280;6451;42.630;23.382;2023-02-19T01:04:05;94642.03;;;7.07;100.00
12775;BME280;6451;42.630;23.382;2023-02-19T01:06:33;94611.84;;;6.88;100.00
12775;BME280;6451;42.630;23.382;2023-02-19T01:09:03;94641.25;;;6.98;100.00
12775;BME280;6451;42.630;23.382;2023-02-19T01:11:41;94602.31;;;6.82;100.00
12775;BME280;6451;42.630;23.382;2023-02-19T01:14:09;94631.84;;;6.87;100.00
12775;BME280;6451;42.630;23.382;2023-02-19T01:16:44;94542.31;;;6.33;100.00
12775;BME280;6451;42.630;23.382;2023-02-19T01:19:12;94637.69;;;6.80;100.00
12775;BME280;6451;42.630;23.382;2023-02-19T01:21:39;94634.22;;;6.80;100.00
12775;BME280;6451;42.630;23.382;2023-02-19T01:24:06;94633.75;;;6.78;100.00
12775;BME280;6451;42.630;23.382;2023-02-19T01:26:37;94636.13;;;6.79;100.00
12775;BME280;6451;42.630;23.382;2023-02-19T01:29:05;94622.94;;;6.69;100.00
12775;BME280;6451;42.630;23.382;2023-02-19T01:31:37;94646.13;;;6.79;100.00
12775;BME280;6451;42.630;23.382;2023-02-19T01:34:09;94658.94;;;6.73;100.00
12775;BME280;6451;42.630;23.382;2023-02-19T01:36:39;94669.41;;;6.75;100.00
12775;BME280;6451;42.630;23.382;2023-02-19T01:39:08;94658.63;;;6.75;100.00
12775;BME280;6451;42.630;23.382;2023-02-19T01:41:42;94681.13;;;6.61;100.00
12775;BME280;6451;42.630;23.382;2023-02-19T01:47:17;94679.22;;;6.62;100.00
12775;BME280;6451;42.630;23.382;2023-02-19T01:49:51;94666.97;;;6.47;100.00
12775;BME280;6451;42.630;23.382;2023-02-19T01:52:26;94549.34;;;5.41;100.00
12775;BME280;6451;42.630;23.382;2023-02-19T01:54:56;94698.69;;;6.50;100.00
12775;BME280;6451;42.630;23.382;2023-02-19T01:57:26;94678.50;;;6.39;100.00
12775;BME280;6451;42.630;23.382;2023-02-19T01:59:57;94627.16;;;6.04;100.00
12775;BME280;6451;42.630;23.382;2023-02-19T02:02:28;94681.69;;;6.41;100.00
12775;BME280;6451;42.630;23.382;2023-02-19T02:05:02;94692.38;;;6.55;100.00
12775;BME280;6451;42.630;23.382;2023-02-19T02:07:34;94678.19;;;6.40;100.00
12775;BME280;6451;42.630;23.382;2023-02-19T02:10:19;94674.78;;;6.26;100.00
12775;BME280;6451;42.630;23.382;2023-02-19T02:12:46;94692.34;;;6.46;100.00
12775;BME280;6451;42.630;23.382;2023-02-19T02:15:17;94673.25;;;6.34;100.00
12775;BME280;6451;42.630;23.382;2023-02-19T02:17:56;94648.25;;;6.11;100.00
12775;BME280;6451;42.630;23.382;2023-02-19T02:20:35;94694.88;;;6.20;100.00
12775;BME280;6451;42.630;23.382;2023-02-19T02:23:12;94696.31;;;6.18;100.00
12775;BME280;6451;42.630;23.382;2023-02-19T02:25:58;94669.00;;;6.10;100.00
12775;BME280;6451;42.630;23.382;2023-02-19T02:29:01;94678.47;;;6.30;100.00
12775;BME280;6451;42.630;23.382;2023-02-19T02:31:40;94654.69;;;6.32;100.00
12775;BME280;6451;42.630;23.382;2023-02-19T02:34:19;94689.97;;;6.53;100.00
12775;BME280;6451;42.630;23.382;2023-02-19T02:36:53;94680.72;;;6.37;100.00
12775;BME280;6451;42.630;23.382;2023-02-19T02:39:24;94657.53;;;6.27;100.00
12775;BME280;6451;42.630;23.382;2023-02-19T02:41:55;94662.44;;;6.25;100.00
12775;BME280;6451;42.630;23.382;2023-02-19T02:44:42;94565.28;;;5.59;100.00
12775;BME280;6451;42.630;23.382;2023-02-19T02:47:35;94633.66;;;6.03;100.00
12775;BME280;6451;42.630;23.382;2023-02-19T02:50:21;94669.25;;;6.23;100.00
12775;BME280;6451;42.630;23.382;2023-02-19T02:52:54;94655.47;;;5.93;100.00
12775;BME280;6451;42.630;23.382;2023-02-19T02:55:45;94653.44;;;6.30;100.00
12775;BME280;6451;42.630;23.382;2023-02-19T02:58:22;94630.81;;;6.08;100.00
12775;BME280;6451;42.630;23.382;2023-02-19T03:00:54;94632.38;;;6.01;100.00
12775;BME280;6451;42.630;23.382;2023-02-19T03:03:43;94668.53;;;6.08;100.00
12775;BME280;6451;42.630;23.382;2023-02-19T03:06:15;94671.19;;;6.00;100.00
12775;BME280;6451;42.630;23.382;2023-02-19T03:08:52;94688.41;;;5.68;100.00
12775;BME280;6451;42.630;23.382;2023-02-19T03:11:22;94646.84;;;5.38;100.00
12775;BME280;6451;42.630;23.382;2023-02-19T03:14:17;94687.56;;;5.67;100.00
12775;BME280;6451;42.630;23.382;2023-02-19T03:17:07;94680.13;;;5.64;100.00
12775;BME280;6451;42.630;23.382;2023-02-19T03:19:57;94699.38;;;5.80;100.00
12775;BME280;6451;42.630;23.382;2023-02-19T03:22:29;94698.53;;;5.71;100.00
12775;BME280;6451;42.630;23.382;2023-02-19T03:25:00;94679.44;;;5.36;100.00
12775;BME280;6451;42.630;23.382;2023-02-19T03:27:47;94717.13;;;5.58;100.00
12775;BME280;6451;42.630;23.382;2023-02-19T03:30:17;94717.69;;;5.69;100.00
12775;BME280;6451;42.630;23.382;2023-02-19T03:32:47;94707.19;;;5.90;100.00
12775;BME280;6451;42.630;23.382;2023-02-19T03:35:21;94718.72;;;5.82;100.00
12775;BME280;6451;42.630;23.382;2023-02-19T03:37:53;94698.16;;;5.86;100.00
12775;BME280;6451;42.630;23.382;2023-02-19T03:40:28;94737.72;;;5.99;100.00
12775;BME280;6451;42.630;23.382;2023-02-19T03:43:02;94724.91;;;6.05;100.00
12775;BME280;6451;42.630;23.382;2023-02-19T03:45:40;94724.13;;;6.04;100.00
12775;BME280;6451;42.630;23.382;2023-02-19T03:48:27;94734.16;;;6.12;100.00
12775;BME280;6451;42.630;23.382;2023-02-19T03:51:06;94733.69;;;6.10;100.00
12775;BME280;6451;42.630;23.382;2023-02-19T03:53:46;94733.88;;;6.14;100.00
12775;BME280;6451;42.630;23.382;2023-02-19T03:56:21;94741.75;;;6.10;100.00
12775;BME280;6451;42.630;23.382;2023-02-19T03:58:55;94730.63;;;6.03;100.00
12775;BME280;6451;42.630;23.382;2023-02-19T04:01:28;94741.41;;;6.03;100.00
12775;BME280;6451;42.630;23.382;2023-02-19T04:04:00;94712.03;;;5.93;100.00
12775;BME280;6451;42.630;23.382;2023-02-19T04:06:31;94741.75;;;6.10;100.00
12775;BME280;6451;42.630;23.382;2023-02-19T04:09:03;94751.75;;;6.10;100.00
12775;BME280;6451;42.630;23.382;2023-02-19T04:11:32;94743.78;;;6.05;100.00
12775;BME280;6451;42.630;23.382;2023-02-19T04:14:02;94752.38;;;6.07;100.00
12775;BME280;6451;42.630;23.382;2023-02-19T04:16:33;94731.34;;;5.95;100.00
12775;BME280;6451;42.630;23.382;2023-02-19T04:19:07;94672.88;;;5.51;100.00
12775;BME280;6451;42.630;23.382;2023-02-19T04:21:38;94759.03;;;6.09;100.00
12775;BME280;6451;42.630;23.382;2023-02-19T04:24:10;94751.38;;;6.03;100.00
12775;BME280;6451;42.630;23.382;2023-02-19T04:26:39;94750.63;;;6.11;100.00
12775;BME280;6451;42.630;23.382;2023-02-19T04:29:07;94717.50;;;5.88;100.00
12775;BME280;6451;42.630;23.382;2023-02-19T04:31:36;94753.41;;;6.28;100.00
12775;BME280;6451;42.630;23.382;2023-02-19T04:34:05;94766.66;;;6.38;100.00
12775;BME280;6451;42.630;23.382;2023-02-19T04:36:32;94771.09;;;6.43;100.00
12775;BME280;6451;42.630;23.382;2023-02-19T04:39:01;94739.38;;;6.40;100.00
12775;BME280;6451;42.630;23.382;2023-02-19T04:41:28;94760.06;;;6.53;100.00
12775;BME280;6451;42.630;23.382;2023-02-19T04:43:57;94718.09;;;6.61;100.00
12775;BME280;6451;42.630;23.382;2023-02-19T04:46:26;94767.34;;;6.84;100.00
12775;BME280;6451;42.630;23.382;2023-02-19T04:48:57;94760.69;;;6.90;100.00
12775;BME280;6451;42.630;23.382;2023-02-19T04:51:24;94766.06;;;6.90;100.00
12775;BME280;6451;42.630;23.382;2023-02-19T04:53:51;94769.59;;;6.90;100.00
12775;BME280;6451;42.630;23.382;2023-02-19T04:56:23;94757.81;;;6.86;100.00
12775;BME280;6451;42.630;23.382;2023-02-19T04:58:50;94749.88;;;6.81;100.00
12775;BME280;6451;42.630;23.382;2023-02-19T05:01:17;94764.31;;;6.77;100.00
12775;BME280;6451;42.630;23.382;2023-02-19T05:03:44;94751.88;;;6.67;100.00
12775;BME280;6451;42.630;23.382;2023-02-19T05:06:12;94758.38;;;6.66;100.00
12775;BME280;6451;42.630;23.382;2023-02-19T05:08:40;94728.03;;;6.52;100.00
12775;BME280;6451;42.630;23.382;2023-02-19T05:11:09;94763.47;;;6.67;100.00
12775;BME280;6451;42.630;23.382;2023-02-19T05:13:38;94774.59;;;6.75;100.00
12775;BME280;6451;42.630;23.382;2023-02-19T05:16:07;94765.41;;;6.76;100.00
12775;BME280;6451;42.630;23.382;2023-02-19T05:18:37;94777.97;;;6.89;100.00
12775;BME280;6451;42.630;23.382;2023-02-19T05:21:08;94722.97;;;6.59;100.00
12775;BME280;6451;42.630;23.382;2023-02-19T05:23:37;94761.50;;;6.90;100.00
12775;BME280;6451;42.630;23.382;2023-02-19T05:26:06;94743.75;;;6.98;100.00
12775;BME280;6451;42.630;23.382;2023-02-19T05:28:35;94730.41;;;7.02;100.00
12775;BME280;6451;42.630;23.382;2023-02-19T05:31:07;94725.56;;;7.30;100.00
12775;BME280;6451;42.630;23.382;2023-02-19T05:33:35;94787.22;;;7.97;100.00
12775;BME280;6451;42.630;23.382;2023-02-19T05:36:07;94792.16;;;8.21;100.00
12775;BME280;6451;42.630;23.382;2023-02-19T05:38:38;94791.84;;;8.40;98.75
12775;BME280;6451;42.630;23.382;2023-02-19T05:41:10;94702.47;;;8.19;95.00
12775;BME280;6451;42.630;23.382;2023-02-19T05:43:38;94655.00;;;8.00;93.02
12775;BME280;6451;42.630;23.382;2023-02-19T05:46:08;94732.50;;;8.90;90.88
12775;BME280;6451;42.630;23.382;2023-02-19T05:48:36;94753.69;;;9.17;88.61
12775;BME280;6451;42.630;23.382;2023-02-19T05:51:06;94789.06;;;9.42;88.08
12775;BME280;6451;42.630;23.382;2023-02-19T05:53:34;94792.34;;;9.56;86.55
12775;BME280;6451;42.630;23.382;2023-02-19T05:56:02;94763.50;;;9.31;86.15
12775;BME280;6451;42.630;23.382;2023-02-19T05:58:29;94709.16;;;9.06;84.75
12775;BME280;6451;42.630;23.382;2023-02-19T06:00:56;94792.03;;;9.79;83.81
12775;BME280;6451;42.630;23.382;2023-02-19T06:03:26;94796.13;;;9.85;83.31
12775;BME280;6451;42.630;23.382;2023-02-19T06:05:53;94793.88;;;9.87;82.47
12775;BME280;6451;42.630;23.382;2023-02-19T06:08:20;94813.00;;;9.90;82.27
12775;BME280;6451;42.630;23.382;2023-02-19T06:10:48;94779.22;;;9.67;82.02
12775;BME280;6451;42.630;23.382;2023-02-19T06:13:15;94812.53;;;9.88;81.45
12775;BME280;6451;42.630;23.382;2023-02-19T06:15:42;94820.63;;;9.97;81.24
12775;BME280;6451;42.630;23.382;2023-02-19T06:18:11;94816.16;;;9.92;81.74
12775;BME280;6451;42.630;23.382;2023-02-19T06:20:49;94789.75;;;9.89;81.15
12775;BME280;6451;42.630;23.382;2023-02-19T06:23:20;94813.53;;;10.05;81.79
12775;BME280;6451;42.630;23.382;2023-02-19T06:25:47;94819.75;;;10.05;81.90
12775;BME280;6451;42.630;23.382;2023-02-19T06:28:16;94815.13;;;10.06;82.32
12775;BME280;6451;42.630;23.382;2023-02-19T06:30:43;94820.25;;;10.19;81.68
12775;BME280;6451;42.630;23.382;2023-02-19T06:33:12;94811.06;;;10.12;81.71
12775;BME280;6451;42.630;23.382;2023-02-19T06:35:39;94798.09;;;9.96;82.54
12775;BME280;6451;42.630;23.382;2023-02-19T06:38:09;94805.41;;;10.05;82.24
12775;BME280;6451;42.630;23.382;2023-02-19T06:40:37;94777.53;;;9.95;83.01
12775;BME280;6451;42.630;23.382;2023-02-19T06:43:05;94816.31;;;10.38;82.06
12775;BME280;6451;42.630;23.382;2023-02-19T06:45:33;94814.06;;;10.40;82.07
12775;BME280;6451;42.630;23.382;2023-02-19T06:48:00;94811.81;;;10.42;81.77
12775;BME280;6451;42.630;23.382;2023-02-19T06:50:27;94758.97;;;10.06;81.90
12775;BME280;6451;42.630;23.382;2023-02-19T06:52:54;94818.63;;;10.27;82.20
12775;BME280;6451;42.630;23.382;2023-02-19T06:55:24;94825.75;;;10.52;81.11
12775;BME280;6451;42.630;23.382;2023-02-19T06:57:51;94823.69;;;10.49;81.13
12775;BME280;6451;42.630;23.382;2023-02-19T07:00:18;94816.94;;;10.55;80.17
12775;BME280;6451;42.630;23.382;2023-02-19T07:02:45;94828.94;;;10.54;80.31
12775;BME280;6451;42.630;23.382;2023-02-19T07:05:15;94830.44;;;10.64;79.78
12775;BME280;6451;42.630;23.382;2023-02-19T07:07:47;94804.63;;;10.58;79.50
12775;BME280;6451;42.630;23.382;2023-02-19T07:10:17;94837.53;;;10.90;79.10
12775;BME280;6451;42.630;23.382;2023-02-19T07:12:46;94829.06;;;10.91;78.48
12775;BME280;6451;42.630;23.382;2023-02-19T07:15:13;94835.72;;;10.94;77.47
12775;BME280;6451;42.630;23.382;2023-02-19T07:17:41;94808.41;;;10.78;77.17
12775;BME280;6451;42.630;23.382;2023-02-19T07:20:10;94806.41;;;10.87;77.58
12775;BME280;6451;42.630;23.382;2023-02-19T07:22:37;94837.19;;;11.03;76.33
12775;BME280;6451;42.630;23.382;2023-02-19T07:25:05;94816.63;;;11.02;75.53
12775;BME280;6451;42.630;23.382;2023-02-19T07:27:32;94783.53;;;10.76;76.04
12775;BME280;6451;42.630;23.382;2023-02-19T07:30:04;94814.03;;;11.06;77.57
12775;BME280;6451;42.630;23.382;2023-02-19T07:32:32;94806.22;;;11.17;77.58
12775;BME280;6451;42.630;23.382;2023-02-19T07:34:59;94803.84;;;11.15;75.92
12775;BME280;6451;42.630;23.382;2023-02-19T07:37:33;94807.94;;;11.21;75.17
12775;BME280;6451;42.630;23.382;2023-02-19T07:40:02;94748.38;;;11.04;74.96
12775;BME280;6451;42.630;23.382;2023-02-19T07:42:31;94810.09;;;11.40;73.53
12775;BME280;6451;42.630;23.382;2023-02-19T07:45:03;94797.19;;;11.37;73.54
12775;BME280;6451;42.630;23.382;2023-02-19T07:47:35;94758.69;;;11.10;73.14
12775;BME280;6451;42.630;23.382;2023-02-19T07:50:02;94771.03;;;11.32;72.80
12775;BME280;6451;42.630;23.382;2023-02-19T07:52:35;94801.69;;;11.57;72.31
12775;BME280;6451;42.630;23.382;2023-02-19T07:55:02;94772.28;;;11.47;72.10
12775;BME280;6451;42.630;23.382;2023-02-19T07:57:32;94721.34;;;11.32;71.42
12775;BME280;6451;42.630;23.382;2023-02-19T07:59:59;94731.75;;;11.42;70.67
12775;BME280;6451;42.630;23.382;2023-02-19T08:02:30;94808.84;;;11.86;70.76
12775;BME280;6451;42.630;23.382;2023-02-19T08:05:15;94730.16;;;11.53;70.56
12775;BME280;6451;42.630;23.382;2023-02-19T08:07:42;94783.78;;;11.93;70.31
12775;BME280;6451;42.630;23.382;2023-02-19T08:10:09;94796.13;;;12.03;70.39
12775;BME280;6451;42.630;23.382;2023-02-19T08:12:56;94789.81;;;12.27;69.02
12775;BME280;6451;42.630;23.382;2023-02-19T08:15:41;94778.91;;;12.27;68.62
12775;BME280;6451;42.630;23.382;2023-02-19T08:18:10;94775.53;;;12.30;68.28
12775;BME280;6451;42.630;23.382;2023-02-19T08:20:38;94774.97;;;12.52;67.59
12775;BME280;6451;42.630;23.382;2023-02-19T08:23:06;94773.50;;;12.55;66.45
12775;BME280;6451;42.630;23.382;2023-02-19T08:25:33;94790.75;;;12.74;66.35
12775;BME280;6451;42.630;23.382;2023-02-19T08:28:02;94773.78;;;12.65;66.41
12775;BME280;6451;42.630;23.382;2023-02-19T08:30:30;94789.63;;;12.91;65.45
12775;BME280;6451;42.630;23.382;2023-02-19T08:32:58;94793.59;;;12.94;65.44
12775;BME280;6451;42.630;23.382;2023-02-19T08:35:30;94782.19;;;12.88;65.08
12775;BME280;6451;42.630;23.382;2023-02-19T08:37:57;94758.50;;;12.76;64.83
12775;BME280;6451;42.630;23.382;2023-02-19T08:40:26;94747.59;;;12.61;64.84
12775;BME280;6451;42.630;23.382;2023-02-19T08:42:53;94794.03;;;12.96;65.53
12775;BME280;6451;42.630;23.382;2023-02-19T08:45:20;94790.44;;;13.07;64.94
12775;BME280;6451;42.630;23.382;2023-02-19T08:47:48;94796.06;;;12.99;64.36
12775;BME280;6451;42.630;23.382;2023-02-19T08:50:18;94790.59;;;12.83;64.68
12775;BME280;6451;42.630;23.382;2023-02-19T08:52:48;94715.97;;;12.56;64.08
12775;BME280;6451;42.630;23.382;2023-02-19T08:55:15;94781.22;;;13.12;64.20
12775;BME280;6451;42.630;23.382;2023-02-19T08:57:47;94725.84;;;12.76;63.95
12775;BME280;6451;42.630;23.382;2023-02-19T09:00:14;94769.94;;;12.82;64.35
12775;BME280;6451;42.630;23.382;2023-02-19T09:02:43;94775.06;;;12.99;64.24
12775;BME280;6451;42.630;23.382;2023-02-19T09:05:10;94751.41;;;12.88;64.41
12775;BME280;6451;42.630;23.382;2023-02-19T09:07:37;94742.19;;;13.08;64.37
12775;BME280;6451;42.630;23.382;2023-02-19T09:10:08;94754.22;;;13.07;64.46
12775;BME280;6451;42.630;23.382;2023-02-19T09:12:35;94745.53;;;13.17;64.16
12775;BME280;6451;42.630;23.382;2023-02-19T09:15:03;94741.22;;;13.32;64.30
12775;BME280;6451;42.630;23.382;2023-02-19T09:17:30;94724.41;;;13.46;64.94
12775;BME280;6451;42.630;23.382;2023-02-19T09:19:57;94694.09;;;13.31;64.72
12775;BME280;6451;42.630;23.382;2023-02-19T09:22:24;94743.63;;;13.69;64.74
12775;BME280;6451;42.630;23.382;2023-02-19T09:24:52;94677.72;;;13.47;65.23
12775;BME280;6451;42.630;23.382;2023-02-19T09:27:22;94713.38;;;13.74;64.64
12775;BME280;6451;42.630;23.382;2023-02-19T09:29:48;94737.72;;;13.82;63.98
12775;BME280;6451;42.630;23.382;2023-02-19T09:32:15;94722.50;;;13.81;64.15
12775;BME280;6451;42.630;23.382;2023-02-19T09:34:42;94737.94;;;13.93;63.24
12775;BME280;6451;42.630;23.382;2023-02-19T09:37:09;94710.09;;;14.03;62.69
12775;BME280;6451;42.630;23.382;2023-02-19T09:39:36;94717.28;;;14.11;62.19
12775;BME280;6451;42.630;23.382;2023-02-19T09:42:11;94717.34;;;14.15;62.38
12775;BME280;6451;42.630;23.382;2023-02-19T09:44:43;94720.94;;;14.19;61.96
12775;BME280;6451;42.630;23.382;2023-02-19T09:47:15;94711.44;;;14.32;61.44
12775;BME280;6451;42.630;23.382;2023-02-19T09:49:48;94728.81;;;14.43;60.81
12775;BME280;6451;42.630;23.382;2023-02-19T09:52:24;94658.59;;;14.02;60.09
12775;BME280;6451;42.630;23.382;2023-02-19T09:54:58;94626.44;;;13.91;59.96
12775;BME280;6451;42.630;23.382;2023-02-19T09:57:29;94667.25;;;14.46;59.16
12775;BME280;6451;42.630;23.382;2023-02-19T10:00:03;94698.19;;;14.73;58.53
12775;BME280;6451;42.630;23.382;2023-02-19T10:02:31;94674.56;;;14.61;57.88
12775;BME280;6451;42.630;23.382;2023-02-19T10:04:58;94690.03;;;14.54;58.71
12775;BME280;6451;42.630;23.382;2023-02-19T10:07:34;94684.44;;;14.69;58.44
12775;BME280;6451;42.630;23.382;2023-02-19T10:10:20;94664.91;;;14.67;57.35
12775;BME280;6451;42.630;23.382;2023-02-19T10:12:51;94672.81;;;14.95;56.86
12775;BME280;6451;42.630;23.382;2023-02-19T10:15:24;94680.63;;;14.97;56.77
12775;BME280;6451;42.630;23.382;2023-02-19T10:17:55;94671.03;;;14.84;57.17
12775;BME280;6451;42.630;23.382;2023-02-19T10:20:24;94660.66;;;14.93;57.10
12775;BME280;6451;42.630;23.382;2023-02-19T10:22:57;94656.16;;;15.04;56.69
12775;BME280;6451;42.630;23.382;2023-02-19T10:25:27;94652.03;;;15.17;56.09
12775;BME280;6451;42.630;23.382;2023-02-19T10:27:56;94650.84;;;15.15;56.06
12775;BME280;6451;42.630;23.382;2023-02-19T10:30:29;94644.25;;;14.93;55.87
12775;BME280;6451;42.630;23.382;2023-02-19T10:33:02;94642.38;;;14.97;56.09
12775;BME280;6451;42.630;23.382;2023-02-19T10:35:36;94643.06;;;15.17;55.27
12775;BME280;6451;42.630;23.382;2023-02-19T10:38:05;94607.91;;;15.15;55.17
12775;BME280;6451;42.630;23.382;2023-02-19T10:40:33;94626.66;;;15.17;54.66
12775;BME280;6451;42.630;23.382;2023-02-19T10:43:03;94626.09;;;15.04;54.71
12775;BME280;6451;42.630;23.382;2023-02-19T10:45:37;94616.09;;;15.15;55.10
12775;BME280;6451;42.630;23.382;2023-02-19T10:48:05;94599.13;;;15.02;54.74
12775;BME280;6451;42.630;23.382;2023-02-19T10:50:35;94607.34;;;15.33;54.58
12775;BME280;6451;42.630;23.382;2023-02-19T10:53:04;94602.38;;;15.38;54.09
12775;BME280;6451;42.630;23.382;2023-02-19T10:55:32;94601.63;;;15.41;53.68
12775;BME280;6451;42.630;23.382;2023-02-19T10:58:21;94597.09;;;15.52;53.48
12775;BME280;6451;42.630;23.382;2023-02-19T11:01:09;94591.63;;;15.52;53.66
12775;BME280;6451;42.630;23.382;2023-02-19T11:03:36;94584.09;;;15.72;53.25
12775;BME280;6451;42.630;23.382;2023-02-19T11:06:06;94574.72;;;15.73;52.93
12775;BME280;6451;42.630;23.382;2023-02-19T11:08:53;94568.97;;;15.85;52.56
12775;BME280;6451;42.630;23.382;2023-02-19T11:11:33;94565.59;;;15.96;51.89
12775;BME280;6451;42.630;23.382;2023-02-19T11:14:04;94513.50;;;15.55;51.90
12775;BME280;6451;42.630;23.382;2023-02-19T11:16:44;94558.66;;;15.72;51.87
12775;BME280;6451;42.630;23.382;2023-02-19T11:19:25;94557.59;;;15.50;51.68
12775;BME280;6451;42.630;23.382;2023-02-19T11:21:58;94554.69;;;15.66;52.05
12775;BME280;6451;42.630;23.382;2023-02-19T11:24:30;94539.25;;;15.50;51.96
12775;BME280;6451;42.630;23.382;2023-02-19T11:27:01;94533.44;;;15.55;51.74
12775;BME280;6451;42.630;23.382;2023-02-19T11:29:29;94534.03;;;15.72;51.39
12775;BME280;6451;42.630;23.382;2023-02-19T11:32:26;94506.03;;;15.52;50.92
12775;BME280;6451;42.630;23.382;2023-02-19T11:35:14;94539.25;;;15.84;51.39
12775;BME280;6451;42.630;23.382;2023-02-19T11:37:56;94527.63;;;15.94;51.19
12775;BME280;6451;42.630;23.382;2023-02-19T11:40:31;94503.53;;;15.70;51.54
12775;BME280;6451;42.630;23.382;2023-02-19T11:43:06;94520.09;;;15.84;51.59
12775;BME280;6451;42.630;23.382;2023-02-19T11:45:44;94501.41;;;15.90;51.73
12775;BME280;6451;42.630;23.382;2023-02-19T11:48:38;94506.09;;;15.89;51.29
12775;BME280;6451;42.630;23.382;2023-02-19T11:51:22;94507.03;;;16.07;50.67
12775;BME280;6451;42.630;23.382;2023-02-19T11:53:59;94451.25;;;15.78;50.80
12775;BME280;6451;42.630;23.382;2023-02-19T11:56:33;94478.00;;;15.96;50.42
12775;BME280;6451;42.630;23.382;2023-02-19T11:59:02;94492.16;;;16.05;49.86
12775;BME280;6451;42.630;23.382;2023-02-19T12:01:42;94487.81;;;16.00;49.85
12775;BME280;6451;42.630;23.382;2023-02-19T12:04:50;94483.69;;;16.21;49.17
12775;BME280;6451;42.630;23.382;2023-02-19T12:07:37;94475.56;;;16.31;48.96
12775;BME280;6451;42.630;23.382;2023-02-19T12:10:14;94448.91;;;16.25;48.89
12775;BME280;6451;42.630;23.382;2023-02-19T12:12:54;94426.81;;;16.00;49.33
12775;BME280;6451;42.630;23.382;2023-02-19T12:18:41;94457.50;;;16.23;48.49
12775;BME280;6451;42.630;23.382;2023-02-19T12:21:22;94455.50;;;16.17;49.05
12775;BME280;6451;42.630;23.382;2023-02-19T12:24:15;94434.31;;;16.10;48.90
12775;BME280;6451;42.630;23.382;2023-02-19T12:26:57;94314.81;;;15.33;48.64
12775;BME280;6451;42.630;23.382;2023-02-19T12:29:40;94438.94;;;16.50;48.24
12775;BME280;6451;42.630;23.382;2023-02-19T12:32:42;94427.81;;;16.29;48.67
12775;BME280;6451;42.630;23.382;2023-02-19T12:35:22;94420.41;;;16.33;48.74
12775;BME280;6451;42.630;23.382;2023-02-19T12:38:02;94413.75;;;16.27;48.78
12775;BME280;6451;42.630;23.382;2023-02-19T12:40:46;94412.56;;;16.31;48.82
12775;BME280;6451;42.630;23.382;2023-02-19T12:43:21;94378.00;;;16.05;48.77
12775;BME280;6451;42.630;23.382;2023-02-19T12:45:53;94403.13;;;16.22;47.91
12775;BME280;6451;42.630;23.382;2023-02-19T12:48:27;94404.41;;;16.38;47.68
12775;BME280;6451;42.630;23.382;2023-02-19T12:50:57;94378.84;;;16.17;48.25
12775;BME280;6451;42.630;23.382;2023-02-19T12:53:39;94393.00;;;16.29;48.64
12775;BME280;6451;42.630;23.382;2023-02-19T12:56:13;94386.72;;;16.25;48.52
12775;BME280;6451;42.630;23.382;2023-02-19T12:58:45;94372.66;;;16.27;48.71
12775;BME280;6451;42.630;23.382;2023-02-19T13:01:18;94373.09;;;16.36;48.29
12775;BME280;6451;42.630;23.382;2023-02-19T13:03:51;94357.91;;;16.42;48.20
12775;BME280;6451;42.630;23.382;2023-02-19T13:06:27;94345.28;;;16.27;48.48
12775;BME280;6451;42.630;23.382;2023-02-19T13:09:01;94361.41;;;16.46;48.35
12775;BME280;6451;42.630;23.382;2023-02-19T13:11:35;94354.72;;;16.40;48.46
12775;BME280;6451;42.630;23.382;2023-02-19T13:14:09;94348.84;;;16.38;48.19
12775;BME280;6451;42.630;23.382;2023-02-19T13:16:45;94345.72;;;16.39;48.36
12775;BME280;6451;42.630;23.382;2023-02-19T13:19:14;94351.28;;;16.54;47.60
12775;BME280;6451;42.630;23.382;2023-02-19T13:21:41;94349.72;;;16.49;46.88
12775;BME280;6451;42.630;23.382;2023-02-19T13:24:33;94337.97;;;16.52;47.64
12775;BME280;6451;42.630;23.382;2023-02-19T13:27:09;94338.75;;;16.49;47.67
12775;BME280;6451;42.630;23.382;2023-02-19T13:29:55;94311.72;;;16.48;47.68
12775;BME280;6451;42.630;23.382;2023-02-19T13:32:38;94324.28;;;16.56;47.61
12775;BME280;6451;42.630;23.382;2023-02-19T13:35:24;94310.94;;;16.47;47.69